sensor_id;sensor_type;location;lat;lon;timestamp;P1;durP1;ratioP1;P2;durP2;ratioP2
52322;SDS011;38263;52.920;6.238;2024-02-21T00:00:03;13.02;;;4.03;;
52322;SDS011;38263;52.920;6.238;2024-02-21T00:02:30;19.23;;;3.83;;
52322;SDS011;38263;52.920;6.238;2024-02-21T00:04:55;16.80;;;3.90;;
52322;SDS011;38263;52.920;6.238;2024-02-21T00:07:22;7.20;;;2.88;;
52322;SDS011;38263;52.920;6.238;2024-02-21T00:09:48;10.40;;;3.05;;
52322;SDS011;38263;52.920;6.238;2024-02-21T00:12:14;16.45;;;3.50;;
52322;SDS011;38263;52.920;6.238;2024-02-21T00:14:40;17.13;;;3.15;;
52322;SDS011;38263;52.920;6.238;2024-02-21T00:17:05;13.80;;;3.92;;
52322;SDS011;38263;52.920;6.238;2024-02-21T00:19:33;14.82;;;4.05;;
52322;SDS011;38263;52.920;6.238;2024-02-21T00:21:59;16.70;;;3.28;;
52322;SDS011;38263;52.920;6.238;2024-02-21T00:24:25;15.52;;;3.78;;
52322;SDS011;38263;52.920;6.238;2024-02-21T00:26:51;21.67;;;3.85;;
52322;SDS011;38263;52.920;6.238;2024-02-21T00:29:17;13.90;;;3.75;;
52322;SDS011;38263;52.920;6.238;2024-02-21T00:31:43;19.75;;;3.95;;
52322;SDS011;38263;52.920;6.238;2024-02-21T00:34:09;20.27;;;3.63;;
52322;SDS011;38263;52.920;6.238;2024-02-21T00:36:37;17.65;;;5.00;;
52322;SDS011;38263;52.920;6.238;2024-02-21T00:39:03;22.35;;;4.80;;
52322;SDS011;38263;52.920;6.238;2024-02-21T00:41:29;14.10;;;4.13;;
52322;SDS011;38263;52.920;6.238;2024-02-21T00:43:55;15.77;;;3.95;;
52322;SDS011;38263;52.920;6.238;2024-02-21T00:46:21;18.35;;;3.50;;
52322;SDS011;38263;52.920;6.238;2024-02-21T00:48:47;15.20;;;3.60;;
52322;SDS011;38263;52.920;6.238;2024-02-21T00:51:13;15.52;;;3.70;;
52322;SDS011;38263;52.920;6.238;2024-02-21T00:53:39;15.20;;;4.50;;
52322;SDS011;38263;52.920;6.238;2024-02-21T00:56:05;14.52;;;3.40;;
52322;SDS011;38263;52.920;6.238;2024-02-21T00:58:31;20.52;;;4.05;;
52322;SDS011;38263;52.920;6.238;2024-02-21T01:00:57;17.15;;;3.63;;
52322;SDS011;38263;52.920;6.238;2024-02-21T01:03:23;16.83;;;3.00;;
52322;SDS011;38263;52.920;6.238;2024-02-21T01:05:49;17.00;;;5.25;;
52322;SDS011;38263;52.920;6.238;2024-02-21T01:08:15;27.45;;;5.07;;
52322;SDS011;38263;52.920;6.238;2024-02-21T01:10:41;17.25;;;3.97;;
52322;SDS011;38263;52.920;6.238;2024-02-21T01:13:08;26.08;;;4.85;;
52322;SDS011;38263;52.920;6.238;2024-02-21T01:15:34;17.63;;;4.22;;
52322;SDS011;38263;52.920;6.238;2024-02-21T01:18:00;21.80;;;4.28;;
52322;SDS011;38263;52.920;6.238;2024-02-21T01:20:26;16.05;;;3.90;;
52322;SDS011;38263;52.920;6.238;2024-02-21T01:22:52;16.02;;;4.63;;
52322;SDS011;38263;52.920;6.238;2024-02-21T01:25:18;19.95;;;4.45;;
52322;SDS011;38263;52.920;6.238;2024-02-21T01:27:44;21.08;;;4.55;;
52322;SDS011;38263;52.920;6.238;2024-02-21T01:30:10;28.33;;;4.68;;
52322;SDS011;38263;52.920;6.238;2024-02-21T01:32:36;21.08;;;4.63;;
52322;SDS011;38263;52.920;6.238;2024-02-21T01:35:02;19.50;;;4.38;;
52322;SDS011;38263;52.920;6.238;2024-02-21T01:37:29;21.73;;;4.63;;
52322;SDS011;38263;52.920;6.238;2024-02-21T01:39:54;23.55;;;4.40;;
52322;SDS011;38263;52.920;6.238;2024-02-21T01:42:20;17.25;;;4.50;;
52322;SDS011;38263;52.920;6.238;2024-02-21T01:44:46;29.60;;;4.75;;
52322;SDS011;38263;52.920;6.238;2024-02-21T01:47:12;21.95;;;4.88;;
52322;SDS011;38263;52.920;6.238;2024-02-21T01:49:40;14.77;;;4.38;;
52322;SDS011;38263;52.920;6.238;2024-02-21T01:52:06;22.38;;;4.65;;
52322;SDS011;38263;52.920;6.238;2024-02-21T01:54:33;16.33;;;4.75;;
52322;SDS011;38263;52.920;6.238;2024-02-21T01:56:59;18.35;;;4.63;;
52322;SDS011;38263;52.920;6.238;2024-02-21T01:59:25;19.05;;;4.38;;
52322;SDS011;38263;52.920;6.238;2024-02-21T02:01:51;22.30;;;5.22;;
52322;SDS011;38263;52.920;6.238;2024-02-21T02:04:19;25.00;;;5.22;;
52322;SDS011;38263;52.920;6.238;2024-02-21T02:06:45;22.45;;;5.60;;
52322;SDS011;38263;52.920;6.238;2024-02-21T02:09:11;22.42;;;4.95;;
52322;SDS011;38263;52.920;6.238;2024-02-21T02:11:37;22.30;;;5.70;;
52322;SDS011;38263;52.920;6.238;2024-02-21T02:14:04;19.17;;;5.82;;
52322;SDS011;38263;52.920;6.238;2024-02-21T02:16:30;22.73;;;5.55;;
52322;SDS011;38263;52.920;6.238;2024-02-21T02:18:56;26.70;;;5.30;;
52322;SDS011;38263;52.920;6.238;2024-02-21T02:21:23;17.63;;;5.15;;
52322;SDS011;38263;52.920;6.238;2024-02-21T02:23:57;21.55;;;5.72;;
52322;SDS011;38263;52.920;6.238;2024-02-21T02:26:23;21.73;;;4.82;;
52322;SDS011;38263;52.920;6.238;2024-02-21T02:28:49;13.05;;;4.13;;
52322;SDS011;38263;52.920;6.238;2024-02-21T02:31:15;21.42;;;5.07;;
52322;SDS011;38263;52.920;6.238;2024-02-21T02:33:42;22.77;;;4.68;;
52322;SDS011;38263;52.920;6.238;2024-02-21T02:36:09;20.65;;;4.82;;
52322;SDS011;38263;52.920;6.238;2024-02-21T02:38:35;26.00;;;5.15;;
52322;SDS011;38263;52.920;6.238;2024-02-21T02:41:01;18.80;;;5.35;;
52322;SDS011;38263;52.920;6.238;2024-02-21T02:43:26;24.88;;;5.20;;
52322;SDS011;38263;52.920;6.238;2024-02-21T02:45:52;22.92;;;5.50;;
52322;SDS011;38263;52.920;6.238;2024-02-21T02:48:19;27.50;;;5.32;;
52322;SDS011;38263;52.920;6.238;2024-02-21T02:50:45;23.17;;;5.95;;
52322;SDS011;38263;52.920;6.238;2024-02-21T02:53:11;23.20;;;5.47;;
52322;SDS011;38263;52.920;6.238;2024-02-21T02:55:37;22.60;;;5.90;;
52322;SDS011;38263;52.920;6.238;2024-02-21T02:58:03;24.45;;;6.03;;
52322;SDS011;38263;52.920;6.238;2024-02-21T03:00:29;18.40;;;5.03;;
52322;SDS011;38263;52.920;6.238;2024-02-21T03:02:55;30.75;;;7.80;;
52322;SDS011;38263;52.920;6.238;2024-02-21T03:05:21;21.75;;;5.28;;
52322;SDS011;38263;52.920;6.238;2024-02-21T03:07:48;28.92;;;6.22;;
52322;SDS011;38263;52.920;6.238;2024-02-21T03:10:14;37.60;;;6.65;;
52322;SDS011;38263;52.920;6.238;2024-02-21T03:12:41;30.75;;;5.85;;
52322;SDS011;38263;52.920;6.238;2024-02-21T03:15:07;23.90;;;5.65;;
52322;SDS011;38263;52.920;6.238;2024-02-21T03:17:34;29.17;;;6.45;;
52322;SDS011;38263;52.920;6.238;2024-02-21T03:20:01;25.90;;;6.22;;
52322;SDS011;38263;52.920;6.238;2024-02-21T03:22:30;34.28;;;6.85;;
52322;SDS011;38263;52.920;6.238;2024-02-21T03:24:57;28.67;;;6.63;;
52322;SDS011;38263;52.920;6.238;2024-02-21T03:27:23;23.30;;;6.20;;
52322;SDS011;38263;52.920;6.238;2024-02-21T03:29:49;18.63;;;6.45;;
52322;SDS011;38263;52.920;6.238;2024-02-21T03:32:15;30.65;;;7.35;;
52322;SDS011;38263;52.920;6.238;2024-02-21T03:34:41;22.90;;;5.88;;
52322;SDS011;38263;52.920;6.238;2024-02-21T03:37:07;25.58;;;6.95;;
52322;SDS011;38263;52.920;6.238;2024-02-21T03:39:33;24.70;;;6.13;;
52322;SDS011;38263;52.920;6.238;2024-02-21T03:41:59;24.98;;;6.25;;
52322;SDS011;38263;52.920;6.238;2024-02-21T03:44:30;24.20;;;7.00;;
52322;SDS011;38263;52.920;6.238;2024-02-21T03:46:56;26.63;;;6.40;;
52322;SDS011;38263;52.920;6.238;2024-02-21T03:49:23;22.23;;;6.78;;
52322;SDS011;38263;52.920;6.238;2024-02-21T03:51:49;23.10;;;6.05;;
52322;SDS011;38263;52.920;6.238;2024-02-21T03:54:15;35.05;;;6.63;;
52322;SDS011;38263;52.920;6.238;2024-02-21T03:56:41;30.70;;;5.72;;
52322;SDS011;38263;52.920;6.238;2024-02-21T03:59:08;26.98;;;5.93;;
52322;SDS011;38263;52.920;6.238;2024-02-21T04:01:34;23.67;;;6.15;;
52322;SDS011;38263;52.920;6.238;2024-02-21T04:04:00;23.45;;;5.70;;
52322;SDS011;38263;52.920;6.238;2024-02-21T04:06:26;17.25;;;5.55;;
52322;SDS011;38263;52.920;6.238;2024-02-21T04:08:52;23.25;;;5.93;;
52322;SDS011;38263;52.920;6.238;2024-02-21T04:11:18;27.13;;;6.20;;
52322;SDS011;38263;52.920;6.238;2024-02-21T04:13:44;31.98;;;6.50;;
52322;SDS011;38263;52.920;6.238;2024-02-21T04:16:13;24.10;;;6.35;;
52322;SDS011;38263;52.920;6.238;2024-02-21T04:18:39;32.30;;;8.30;;
52322;SDS011;38263;52.920;6.238;2024-02-21T04:21:05;30.88;;;8.82;;
52322;SDS011;38263;52.920;6.238;2024-02-21T04:23:31;22.02;;;6.82;;
52322;SDS011;38263;52.920;6.238;2024-02-21T04:25:57;31.13;;;8.52;;
52322;SDS011;38263;52.920;6.238;2024-02-21T04:28:23;34.15;;;8.45;;
52322;SDS011;38263;52.920;6.238;2024-02-21T04:30:49;23.70;;;6.20;;
52322;SDS011;38263;52.920;6.238;2024-02-21T04:33:15;31.13;;;7.63;;
52322;SDS011;38263;52.920;6.238;2024-02-21T04:35:41;32.75;;;7.97;;
52322;SDS011;38263;52.920;6.238;2024-02-21T04:38:07;30.85;;;8.68;;
52322;SDS011;38263;52.920;6.238;2024-02-21T04:40:33;40.70;;;8.70;;
52322;SDS011;38263;52.920;6.238;2024-02-21T04:42:59;32.97;;;8.15;;
52322;SDS011;38263;52.920;6.238;2024-02-21T04:45:25;35.25;;;8.60;;
52322;SDS011;38263;52.920;6.238;2024-02-21T04:47:51;30.98;;;7.63;;
52322;SDS011;38263;52.920;6.238;2024-02-21T04:50:17;26.83;;;8.73;;
52322;SDS011;38263;52.920;6.238;2024-02-21T04:52:43;35.85;;;9.25;;
52322;SDS011;38263;52.920;6.238;2024-02-21T04:55:09;33.90;;;8.35;;
52322;SDS011;38263;52.920;6.238;2024-02-21T04:57:35;36.90;;;8.38;;
52322;SDS011;38263;52.920;6.238;2024-02-21T05:00:01;28.92;;;7.80;;
52322;SDS011;38263;52.920;6.238;2024-02-21T05:02:27;33.83;;;7.85;;
52322;SDS011;38263;52.920;6.238;2024-02-21T05:04:53;27.85;;;8.63;;
52322;SDS011;38263;52.920;6.238;2024-02-21T05:07:19;31.10;;;8.32;;
52322;SDS011;38263;52.920;6.238;2024-02-21T05:09:45;39.15;;;8.80;;
52322;SDS011;38263;52.920;6.238;2024-02-21T05:12:11;28.33;;;8.07;;
52322;SDS011;38263;52.920;6.238;2024-02-21T05:14:37;25.45;;;7.60;;
52322;SDS011;38263;52.920;6.238;2024-02-21T05:17:04;31.20;;;8.48;;
52322;SDS011;38263;52.920;6.238;2024-02-21T05:19:29;33.70;;;8.02;;
52322;SDS011;38263;52.920;6.238;2024-02-21T05:21:55;31.58;;;8.05;;
52322;SDS011;38263;52.920;6.238;2024-02-21T05:24:21;32.40;;;8.73;;
52322;SDS011;38263;52.920;6.238;2024-02-21T05:26:47;42.42;;;9.57;;
52322;SDS011;38263;52.920;6.238;2024-02-21T05:29:13;34.78;;;8.43;;
52322;SDS011;38263;52.920;6.238;2024-02-21T05:31:54;39.45;;;10.30;;
52322;SDS011;38263;52.920;6.238;2024-02-21T05:34:22;30.40;;;8.40;;
52322;SDS011;38263;52.920;6.238;2024-02-21T05:36:48;38.72;;;8.85;;
52322;SDS011;38263;52.920;6.238;2024-02-21T05:39:14;42.20;;;9.75;;
52322;SDS011;38263;52.920;6.238;2024-02-21T05:41:41;34.22;;;9.55;;
52322;SDS011;38263;52.920;6.238;2024-02-21T05:44:07;43.85;;;9.30;;
52322;SDS011;38263;52.920;6.238;2024-02-21T05:46:33;41.33;;;9.63;;
52322;SDS011;38263;52.920;6.238;2024-02-21T05:49:00;35.97;;;9.68;;
52322;SDS011;38263;52.920;6.238;2024-02-21T05:51:26;37.05;;;9.55;;
52322;SDS011;38263;52.920;6.238;2024-02-21T05:53:51;43.60;;;8.80;;
52322;SDS011;38263;52.920;6.238;2024-02-21T05:56:17;44.35;;;9.73;;
52322;SDS011;38263;52.920;6.238;2024-02-21T05:58:44;40.20;;;8.52;;
52322;SDS011;38263;52.920;6.238;2024-02-21T06:01:10;32.70;;;7.63;;
52322;SDS011;38263;52.920;6.238;2024-02-21T06:03:36;48.45;;;9.18;;
52322;SDS011;38263;52.920;6.238;2024-02-21T06:06:02;37.45;;;8.48;;
52322;SDS011;38263;52.920;6.238;2024-02-21T06:08:29;41.28;;;8.52;;
52322;SDS011;38263;52.920;6.238;2024-02-21T06:10:55;39.75;;;8.00;;
52322;SDS011;38263;52.920;6.238;2024-02-21T06:13:23;39.22;;;8.10;;
52322;SDS011;38263;52.920;6.238;2024-02-21T06:15:49;46.00;;;7.75;;
52322;SDS011;38263;52.920;6.238;2024-02-21T06:18:15;32.53;;;7.85;;
52322;SDS011;38263;52.920;6.238;2024-02-21T06:20:44;35.28;;;8.02;;
52322;SDS011;38263;52.920;6.238;2024-02-21T06:23:11;37.85;;;8.57;;
52322;SDS011;38263;52.920;6.238;2024-02-21T06:25:41;32.63;;;7.80;;
52322;SDS011;38263;52.920;6.238;2024-02-21T06:28:07;39.13;;;7.38;;
52322;SDS011;38263;52.920;6.238;2024-02-21T06:30:33;35.97;;;7.97;;
52322;SDS011;38263;52.920;6.238;2024-02-21T06:33:00;37.67;;;7.32;;
52322;SDS011;38263;52.920;6.238;2024-02-21T06:35:27;41.17;;;8.38;;
52322;SDS011;38263;52.920;6.238;2024-02-21T06:37:53;37.50;;;6.40;;
52322;SDS011;38263;52.920;6.238;2024-02-21T06:40:21;40.55;;;6.82;;
52322;SDS011;38263;52.920;6.238;2024-02-21T06:42:48;29.10;;;6.47;;
52322;SDS011;38263;52.920;6.238;2024-02-21T06:45:14;30.05;;;6.50;;
52322;SDS011;38263;52.920;6.238;2024-02-21T06:47:40;29.88;;;7.05;;
52322;SDS011;38263;52.920;6.238;2024-02-21T06:50:06;30.58;;;7.20;;
52322;SDS011;38263;52.920;6.238;2024-02-21T06:52:32;24.63;;;6.78;;
52322;SDS011;38263;52.920;6.238;2024-02-21T06:54:58;29.33;;;8.02;;
52322;SDS011;38263;52.920;6.238;2024-02-21T06:57:24;16.35;;;6.05;;
52322;SDS011;38263;52.920;6.238;2024-02-21T06:59:50;27.13;;;7.13;;
52322;SDS011;38263;52.920;6.238;2024-02-21T07:02:16;22.40;;;6.43;;
52322;SDS011;38263;52.920;6.238;2024-02-21T07:04:42;19.02;;;6.38;;
52322;SDS011;38263;52.920;6.238;2024-02-21T07:07:08;33.75;;;6.28;;
52322;SDS011;38263;52.920;6.238;2024-02-21T07:09:34;20.83;;;6.03;;
52322;SDS011;38263;52.920;6.238;2024-02-21T07:12:01;25.63;;;6.50;;
52322;SDS011;38263;52.920;6.238;2024-02-21T07:14:28;17.58;;;5.60;;
52322;SDS011;38263;52.920;6.238;2024-02-21T07:16:54;17.00;;;6.25;;
52322;SDS011;38263;52.920;6.238;2024-02-21T07:19:22;22.52;;;6.55;;
52322;SDS011;38263;52.920;6.238;2024-02-21T07:21:47;24.13;;;5.82;;
52322;SDS011;38263;52.920;6.238;2024-02-21T07:24:14;26.33;;;6.45;;
52322;SDS011;38263;52.920;6.238;2024-02-21T07:26:43;22.02;;;7.13;;
52322;SDS011;38263;52.920;6.238;2024-02-21T07:29:09;26.52;;;6.50;;
52322;SDS011;38263;52.920;6.238;2024-02-21T07:31:39;22.70;;;6.05;;
52322;SDS011;38263;52.920;6.238;2024-02-21T07:34:08;26.30;;;5.70;;
52322;SDS011;38263;52.920;6.238;2024-02-21T07:36:34;18.73;;;5.50;;
52322;SDS011;38263;52.920;6.238;2024-02-21T07:39:02;24.58;;;6.05;;
52322;SDS011;38263;52.920;6.238;2024-02-21T07:41:29;20.08;;;6.80;;
52322;SDS011;38263;52.920;6.238;2024-02-21T07:43:55;23.42;;;6.75;;
52322;SDS011;38263;52.920;6.238;2024-02-21T07:46:22;16.63;;;6.60;;
52322;SDS011;38263;52.920;6.238;2024-02-21T07:48:48;26.98;;;7.57;;
52322;SDS011;38263;52.920;6.238;2024-02-21T07:51:14;18.33;;;7.22;;
52322;SDS011;38263;52.920;6.238;2024-02-21T07:53:43;25.52;;;8.10;;
52322;SDS011;38263;52.920;6.238;2024-02-21T07:56:19;23.08;;;9.43;;
52322;SDS011;38263;52.920;6.238;2024-02-21T07:58:45;23.25;;;10.15;;
52322;SDS011;38263;52.920;6.238;2024-02-21T08:01:10;30.10;;;12.23;;
52322;SDS011;38263;52.920;6.238;2024-02-21T08:03:36;30.20;;;11.50;;
52322;SDS011;38263;52.920;6.238;2024-02-21T08:06:03;32.90;;;13.38;;
52322;SDS011;38263;52.920;6.238;2024-02-21T08:08:29;25.15;;;12.32;;
52322;SDS011;38263;52.920;6.238;2024-02-21T08:10:55;28.27;;;14.05;;
52322;SDS011;38263;52.920;6.238;2024-02-21T08:13:21;27.75;;;14.18;;
52322;SDS011;38263;52.920;6.238;2024-02-21T08:15:47;30.60;;;14.15;;
52322;SDS011;38263;52.920;6.238;2024-02-21T08:18:13;27.98;;;14.20;;
52322;SDS011;38263;52.920;6.238;2024-02-21T08:20:39;25.75;;;13.85;;
52322;SDS011;38263;52.920;6.238;2024-02-21T08:23:05;29.52;;;14.07;;
52322;SDS011;38263;52.920;6.238;2024-02-21T08:25:31;37.10;;;14.23;;
52322;SDS011;38263;52.920;6.238;2024-02-21T08:27:57;34.05;;;15.23;;
52322;SDS011;38263;52.920;6.238;2024-02-21T08:30:24;29.48;;;13.93;;
52322;SDS011;38263;52.920;6.238;2024-02-21T08:32:50;29.15;;;13.93;;
52322;SDS011;38263;52.920;6.238;2024-02-21T08:35:16;31.13;;;14.98;;
52322;SDS011;38263;52.920;6.238;2024-02-21T08:37:47;27.80;;;14.38;;
52322;SDS011;38263;52.920;6.238;2024-02-21T08:40:13;29.20;;;14.48;;
52322;SDS011;38263;52.920;6.238;2024-02-21T08:42:42;28.88;;;14.88;;
52322;SDS011;38263;52.920;6.238;2024-02-21T08:45:09;27.83;;;13.98;;
52322;SDS011;38263;52.920;6.238;2024-02-21T08:47:35;31.42;;;14.88;;
52322;SDS011;38263;52.920;6.238;2024-02-21T08:50:04;31.13;;;14.63;;
52322;SDS011;38263;52.920;6.238;2024-02-21T08:52:30;27.85;;;13.85;;
52322;SDS011;38263;52.920;6.238;2024-02-21T08:54:57;25.92;;;13.38;;
52322;SDS011;38263;52.920;6.238;2024-02-21T08:57:23;27.95;;;14.27;;
52322;SDS011;38263;52.920;6.238;2024-02-21T08:59:51;21.70;;;13.57;;
52322;SDS011;38263;52.920;6.238;2024-02-21T09:02:17;26.95;;;14.75;;
52322;SDS011;38263;52.920;6.238;2024-02-21T09:04:43;27.33;;;13.32;;
52322;SDS011;38263;52.920;6.238;2024-02-21T09:07:09;28.45;;;14.75;;
52322;SDS011;38263;52.920;6.238;2024-02-21T09:09:35;24.50;;;13.98;;
52322;SDS011;38263;52.920;6.238;2024-02-21T09:12:03;25.05;;;12.45;;
52322;SDS011;38263;52.920;6.238;2024-02-21T09:14:34;23.27;;;13.70;;
52322;SDS011;38263;52.920;6.238;2024-02-21T09:17:02;29.92;;;13.23;;
52322;SDS011;38263;52.920;6.238;2024-02-21T09:19:28;28.52;;;13.35;;
52322;SDS011;38263;52.920;6.238;2024-02-21T09:21:54;26.05;;;14.32;;
52322;SDS011;38263;52.920;6.238;2024-02-21T09:24:20;27.27;;;14.18;;
52322;SDS011;38263;52.920;6.238;2024-02-21T09:26:46;23.85;;;13.80;;
52322;SDS011;38263;52.920;6.238;2024-02-21T09:29:12;29.27;;;15.57;;
52322;SDS011;38263;52.920;6.238;2024-02-21T09:31:40;26.95;;;15.80;;
52322;SDS011;38263;52.920;6.238;2024-02-21T09:34:07;27.30;;;15.50;;
52322;SDS011;38263;52.920;6.238;2024-02-21T09:36:33;29.63;;;17.00;;
52322;SDS011;38263;52.920;6.238;2024-02-21T09:38:59;29.05;;;15.38;;
52322;SDS011;38263;52.920;6.238;2024-02-21T09:41:25;28.23;;;16.52;;
52322;SDS011;38263;52.920;6.238;2024-02-21T09:43:54;27.95;;;15.77;;
52322;SDS011;38263;52.920;6.238;2024-02-21T09:46:21;29.48;;;16.75;;
52322;SDS011;38263;52.920;6.238;2024-02-21T09:49:21;27.85;;;16.98;;
52322;SDS011;38263;52.920;6.238;2024-02-21T09:51:51;32.33;;;17.10;;
52322;SDS011;38263;52.920;6.238;2024-02-21T09:54:20;37.47;;;20.98;;
52322;SDS011;38263;52.920;6.238;2024-02-21T09:56:47;31.30;;;18.67;;
52322;SDS011;38263;52.920;6.238;2024-02-21T09:59:16;32.95;;;19.33;;
52322;SDS011;38263;52.920;6.238;2024-02-21T10:01:42;33.17;;;18.10;;
52322;SDS011;38263;52.920;6.238;2024-02-21T10:04:09;34.83;;;19.17;;
52322;SDS011;38263;52.920;6.238;2024-02-21T10:06:35;33.08;;;19.55;;
52322;SDS011;38263;52.920;6.238;2024-02-21T10:09:07;34.55;;;19.25;;
52322;SDS011;38263;52.920;6.238;2024-02-21T10:11:33;32.20;;;18.55;;
52322;SDS011;38263;52.920;6.238;2024-02-21T10:14:07;38.40;;;19.08;;
52322;SDS011;38263;52.920;6.238;2024-02-21T10:16:33;33.03;;;17.67;;
52322;SDS011;38263;52.920;6.238;2024-02-21T10:18:59;36.53;;;19.70;;
52322;SDS011;38263;52.920;6.238;2024-02-21T10:21:25;37.45;;;17.73;;
52322;SDS011;38263;52.920;6.238;2024-02-21T10:23:51;38.30;;;18.17;;
52322;SDS011;38263;52.920;6.238;2024-02-21T10:26:18;26.45;;;14.50;;
52322;SDS011;38263;52.920;6.238;2024-02-21T10:28:44;29.15;;;17.45;;
52322;SDS011;38263;52.920;6.238;2024-02-21T10:31:20;28.10;;;17.40;;
52322;SDS011;38263;52.920;6.238;2024-02-21T10:33:54;30.15;;;16.35;;
52322;SDS011;38263;52.920;6.238;2024-02-21T10:36:24;27.60;;;16.63;;
52322;SDS011;38263;52.920;6.238;2024-02-21T10:38:50;30.05;;;17.23;;
52322;SDS011;38263;52.920;6.238;2024-02-21T10:41:17;30.95;;;17.13;;
52322;SDS011;38263;52.920;6.238;2024-02-21T10:43:46;28.38;;;16.88;;
52322;SDS011;38263;52.920;6.238;2024-02-21T10:46:14;35.42;;;16.02;;
52322;SDS011;38263;52.920;6.238;2024-02-21T10:48:44;29.13;;;16.58;;
52322;SDS011;38263;52.920;6.238;2024-02-21T10:51:19;26.92;;;15.10;;
52322;SDS011;38263;52.920;6.238;2024-02-21T10:53:47;29.48;;;14.18;;
52322;SDS011;38263;52.920;6.238;2024-02-21T10:56:30;24.02;;;13.82;;
52322;SDS011;38263;52.920;6.238;2024-02-21T10:59:00;21.05;;;13.88;;
52322;SDS011;38263;52.920;6.238;2024-02-21T11:01:27;18.00;;;11.80;;
52322;SDS011;38263;52.920;6.238;2024-02-21T11:03:56;21.90;;;12.68;;
52322;SDS011;38263;52.920;6.238;2024-02-21T11:06:24;20.77;;;12.57;;
52322;SDS011;38263;52.920;6.238;2024-02-21T11:11:29;27.40;;;14.07;;
52322;SDS011;38263;52.920;6.238;2024-02-21T11:16:40;24.20;;;11.27;;
52322;SDS011;38263;52.920;6.238;2024-02-21T11:19:07;21.00;;;11.55;;
52322;SDS011;38263;52.920;6.238;2024-02-21T11:21:33;22.60;;;12.57;;
52322;SDS011;38263;52.920;6.238;2024-02-21T11:24:03;25.13;;;12.55;;
52322;SDS011;38263;52.920;6.238;2024-02-21T11:26:29;16.23;;;10.75;;
52322;SDS011;38263;52.920;6.238;2024-02-21T11:29:05;17.98;;;9.57;;
52322;SDS011;38263;52.920;6.238;2024-02-21T11:31:40;17.08;;;10.05;;
52322;SDS011;38263;52.920;6.238;2024-02-21T11:34:10;19.33;;;10.57;;
52322;SDS011;38263;52.920;6.238;2024-02-21T11:36:46;18.52;;;9.73;;
52322;SDS011;38263;52.920;6.238;2024-02-21T11:39:18;18.38;;;10.68;;
52322;SDS011;38263;52.920;6.238;2024-02-21T11:42:01;20.63;;;10.13;;
52322;SDS011;38263;52.920;6.238;2024-02-21T11:44:27;17.65;;;10.57;;
52322;SDS011;38263;52.920;6.238;2024-02-21T11:46:53;16.35;;;9.32;;
52322;SDS011;38263;52.920;6.238;2024-02-21T11:49:20;15.35;;;8.50;;
52322;SDS011;38263;52.920;6.238;2024-02-21T11:51:46;16.27;;;9.25;;
52322;SDS011;38263;52.920;6.238;2024-02-21T11:54:13;15.50;;;8.57;;
52322;SDS011;38263;52.920;6.238;2024-02-21T11:56:41;18.25;;;8.05;;
52322;SDS011;38263;52.920;6.238;2024-02-21T11:59:08;15.50;;;7.63;;
52322;SDS011;38263;52.920;6.238;2024-02-21T12:01:34;15.05;;;8.38;;
52322;SDS011;38263;52.920;6.238;2024-02-21T12:03:59;15.48;;;8.20;;
52322;SDS011;38263;52.920;6.238;2024-02-21T12:06:25;14.38;;;8.25;;
52322;SDS011;38263;52.920;6.238;2024-02-21T12:08:51;12.57;;;7.60;;
52322;SDS011;38263;52.920;6.238;2024-02-21T12:11:19;20.38;;;8.85;;
52322;SDS011;38263;52.920;6.238;2024-02-21T12:13:47;15.77;;;8.75;;
52322;SDS011;38263;52.920;6.238;2024-02-21T12:16:16;16.83;;;8.93;;
52322;SDS011;38263;52.920;6.238;2024-02-21T12:18:43;19.50;;;9.18;;
52322;SDS011;38263;52.920;6.238;2024-02-21T12:21:09;18.42;;;8.77;;
52322;SDS011;38263;52.920;6.238;2024-02-21T12:23:37;20.95;;;8.82;;
52322;SDS011;38263;52.920;6.238;2024-02-21T12:26:03;15.75;;;8.68;;
52322;SDS011;38263;52.920;6.238;2024-02-21T12:28:30;17.00;;;7.80;;
52322;SDS011;38263;52.920;6.238;2024-02-21T12:30:56;13.23;;;8.40;;
52322;SDS011;38263;52.920;6.238;2024-02-21T12:33:22;13.43;;;6.93;;
52322;SDS011;38263;52.920;6.238;2024-02-21T12:35:48;16.23;;;7.47;;
52322;SDS011;38263;52.920;6.238;2024-02-21T12:38:14;11.48;;;7.57;;
52322;SDS011;38263;52.920;6.238;2024-02-21T12:40:40;13.93;;;7.35;;
52322;SDS011;38263;52.920;6.238;2024-02-21T12:43:06;13.25;;;6.78;;
52322;SDS011;38263;52.920;6.238;2024-02-21T12:45:32;13.13;;;6.90;;
52322;SDS011;38263;52.920;6.238;2024-02-21T12:47:59;9.95;;;6.82;;
52322;SDS011;38263;52.920;6.238;2024-02-21T12:50:25;11.25;;;6.53;;
52322;SDS011;38263;52.920;6.238;2024-02-21T12:52:50;11.15;;;7.03;;
52322;SDS011;38263;52.920;6.238;2024-02-21T12:55:17;10.32;;;6.70;;
52322;SDS011;38263;52.920;6.238;2024-02-21T12:57:42;10.30;;;6.95;;
52322;SDS011;38263;52.920;6.238;2024-02-21T13:00:08;11.27;;;6.72;;
52322;SDS011;38263;52.920;6.238;2024-02-21T13:02:36;9.05;;;5.93;;
52322;SDS011;38263;52.920;6.238;2024-02-21T13:05:02;10.10;;;5.40;;
52322;SDS011;38263;52.920;6.238;2024-02-21T13:07:28;10.27;;;6.20;;
52322;SDS011;38263;52.920;6.238;2024-02-21T13:09:56;10.23;;;6.72;;
52322;SDS011;38263;52.920;6.238;2024-02-21T13:12:22;8.68;;;5.43;;
52322;SDS011;38263;52.920;6.238;2024-02-21T13:14:48;7.78;;;4.38;;
52322;SDS011;38263;52.920;6.238;2024-02-21T13:17:14;11.35;;;5.07;;
52322;SDS011;38263;52.920;6.238;2024-02-21T13:19:41;6.53;;;4.82;;
52322;SDS011;38263;52.920;6.238;2024-02-21T13:22:07;6.28;;;4.63;;
52322;SDS011;38263;52.920;6.238;2024-02-21T13:24:34;6.82;;;4.75;;
52322;SDS011;38263;52.920;6.238;2024-02-21T13:27:00;5.97;;;4.50;;
52322;SDS011;38263;52.920;6.238;2024-02-21T13:29:26;8.52;;;5.28;;
52322;SDS011;38263;52.920;6.238;2024-02-21T13:31:52;7.75;;;5.10;;
52322;SDS011;38263;52.920;6.238;2024-02-21T13:34:18;10.43;;;6.68;;
52322;SDS011;38263;52.920;6.238;2024-02-21T13:36:44;6.93;;;5.75;;
52322;SDS011;38263;52.920;6.238;2024-02-21T13:39:10;7.97;;;5.57;;
52322;SDS011;38263;52.920;6.238;2024-02-21T13:41:40;10.32;;;6.20;;
52322;SDS011;38263;52.920;6.238;2024-02-21T13:44:07;7.80;;;5.68;;
52322;SDS011;38263;52.920;6.238;2024-02-21T13:46:34;9.30;;;5.63;;
52322;SDS011;38263;52.920;6.238;2024-02-21T13:49:04;7.95;;;5.75;;
52322;SDS011;38263;52.920;6.238;2024-02-21T13:51:31;7.80;;;5.63;;
52322;SDS011;38263;52.920;6.238;2024-02-21T13:53:57;7.60;;;5.20;;
52322;SDS011;38263;52.920;6.238;2024-02-21T13:56:24;8.60;;;5.47;;
52322;SDS011;38263;52.920;6.238;2024-02-21T13:58:50;11.90;;;5.60;;
52322;SDS011;38263;52.920;6.238;2024-02-21T14:01:16;8.93;;;5.32;;
52322;SDS011;38263;52.920;6.238;2024-02-21T14:03:43;7.97;;;5.38;;
52322;SDS011;38263;52.920;6.238;2024-02-21T14:06:09;10.50;;;5.82;;
52322;SDS011;38263;52.920;6.238;2024-02-21T14:08:35;8.45;;;6.53;;
52322;SDS011;38263;52.920;6.238;2024-02-21T14:11:02;9.05;;;5.82;;
52322;SDS011;38263;52.920;6.238;2024-02-21T14:13:28;8.20;;;5.63;;
52322;SDS011;38263;52.920;6.238;2024-02-21T14:15:55;11.02;;;5.72;;
52322;SDS011;38263;52.920;6.238;2024-02-21T14:18:21;10.52;;;5.95;;
52322;SDS011;38263;52.920;6.238;2024-02-21T14:20:47;11.18;;;5.68;;
52322;SDS011;38263;52.920;6.238;2024-02-21T14:23:13;9.10;;;5.63;;
52322;SDS011;38263;52.920;6.238;2024-02-21T14:25:39;8.10;;;5.78;;
52322;SDS011;38263;52.920;6.238;2024-02-21T14:28:07;11.98;;;5.82;;
52322;SDS011;38263;52.920;6.238;2024-02-21T14:30:34;11.05;;;6.35;;
52322;SDS011;38263;52.920;6.238;2024-02-21T14:33:00;8.98;;;5.75;;
52322;SDS011;38263;52.920;6.238;2024-02-21T14:35:27;9.18;;;6.65;;